sensor_id;sensor_type;location;lat;lon;timestamp;P1;durP1;ratioP1;P2;durP2;ratioP2
3149;SDS011;32503;47.748;8.960;2023-11-19T00:00:53;2.90;;;2.70;;
3149;SDS011;32503;47.748;8.960;2023-11-19T00:03:20;3.40;;;3.10;;
3149;SDS011;32503;47.748;8.960;2023-11-19T00:05:47;2.53;;;2.33;;
3149;SDS011;32503;47.748;8.960;2023-11-19T00:08:15;2.33;;;2.23;;
3149;SDS011;32503;47.748;8.960;2023-11-19T00:10:44;2.73;;;2.57;;
3149;SDS011;32503;47.748;8.960;2023-11-19T00:13:11;3.00;;;2.20;;
3149;SDS011;32503;47.748;8.960;2023-11-19T00:15:38;2.70;;;2.50;;
3149;SDS011;32503;47.748;8.960;2023-11-19T00:18:05;4.80;;;3.23;;
3149;SDS011;32503;47.748;8.960;2023-11-19T00:20:32;3.77;;;3.47;;
3149;SDS011;32503;47.748;8.960;2023-11-19T00:22:59;2.73;;;2.53;;
3149;SDS011;32503;47.748;8.960;2023-11-19T00:25:27;2.87;;;2.67;;
3149;SDS011;32503;47.748;8.960;2023-11-19T00:27:56;3.87;;;3.57;;
3149;SDS011;32503;47.748;8.960;2023-11-19T00:30:23;2.67;;;2.47;;
3149;SDS011;32503;47.748;8.960;2023-11-19T00:32:50;3.37;;;3.17;;
3149;SDS011;32503;47.748;8.960;2023-11-19T00:35:17;2.93;;;2.83;;
3149;SDS011;32503;47.748;8.960;2023-11-19T00:37:44;2.90;;;2.70;;
3149;SDS011;32503;47.748;8.960;2023-11-19T00:40:12;3.30;;;3.00;;
3149;SDS011;32503;47.748;8.960;2023-11-19T00:42:41;3.53;;;3.23;;
3149;SDS011;32503;47.748;8.960;2023-11-19T00:45:09;3.23;;;2.93;;
3149;SDS011;32503;47.748;8.960;2023-11-19T00:47:38;4.67;;;3.40;;
3149;SDS011;32503;47.748;8.960;2023-11-19T00:50:05;3.57;;;3.10;;
3149;SDS011;32503;47.748;8.960;2023-11-19T00:52:35;3.00;;;2.80;;
3149;SDS011;32503;47.748;8.960;2023-11-19T00:55:01;1.93;;;1.83;;
3149;SDS011;32503;47.748;8.960;2023-11-19T00:57:29;3.10;;;2.90;;
3149;SDS011;32503;47.748;8.960;2023-11-19T00:59:58;4.40;;;3.70;;
3149;SDS011;32503;47.748;8.960;2023-11-19T01:02:26;2.70;;;2.57;;
3149;SDS011;32503;47.748;8.960;2023-11-19T01:04:53;2.63;;;2.53;;
3149;SDS011;32503;47.748;8.960;2023-11-19T01:07:20;2.27;;;2.17;;
3149;SDS011;32503;47.748;8.960;2023-11-19T01:09:49;2.57;;;2.37;;
3149;SDS011;32503;47.748;8.960;2023-11-19T01:12:16;2.77;;;2.57;;
3149;SDS011;32503;47.748;8.960;2023-11-19T01:14:43;1.80;;;1.70;;
3149;SDS011;32503;47.748;8.960;2023-11-19T01:17:10;2.60;;;2.50;;
3149;SDS011;32503;47.748;8.960;2023-11-19T01:19:39;3.30;;;3.10;;
3149;SDS011;32503;47.748;8.960;2023-11-19T01:22:06;2.93;;;2.77;;
3149;SDS011;32503;47.748;8.960;2023-11-19T01:24:35;3.50;;;3.20;;
3149;SDS011;32503;47.748;8.960;2023-11-19T01:27:03;2.63;;;2.53;;
3149;SDS011;32503;47.748;8.960;2023-11-19T01:29:30;2.97;;;2.80;;
3149;SDS011;32503;47.748;8.960;2023-11-19T01:31:57;3.20;;;3.00;;
3149;SDS011;32503;47.748;8.960;2023-11-19T01:34:24;2.80;;;2.60;;
3149;SDS011;32503;47.748;8.960;2023-11-19T01:36:54;3.40;;;3.20;;
3149;SDS011;32503;47.748;8.960;2023-11-19T01:39:21;2.87;;;2.77;;
3149;SDS011;32503;47.748;8.960;2023-11-19T01:41:48;2.37;;;2.27;;
3149;SDS011;32503;47.748;8.960;2023-11-19T01:44:15;3.10;;;2.90;;
3149;SDS011;32503;47.748;8.960;2023-11-19T01:46:43;2.73;;;2.63;;
3149;SDS011;32503;47.748;8.960;2023-11-19T01:49:14;3.30;;;3.10;;
3149;SDS011;32503;47.748;8.960;2023-11-19T01:51:41;2.80;;;2.70;;
3149;SDS011;32503;47.748;8.960;2023-11-19T01:54:10;3.33;;;3.13;;
3149;SDS011;32503;47.748;8.960;2023-11-19T01:56:38;2.87;;;2.77;;
3149;SDS011;32503;47.748;8.960;2023-11-19T01:59:07;2.80;;;2.60;;
3149;SDS011;32503;47.748;8.960;2023-11-19T02:01:36;2.90;;;2.70;;
3149;SDS011;32503;47.748;8.960;2023-11-19T02:04:05;2.50;;;2.40;;
3149;SDS011;32503;47.748;8.960;2023-11-19T02:06:33;2.70;;;2.60;;
3149;SDS011;32503;47.748;8.960;2023-11-19T02:09:04;3.90;;;2.80;;
3149;SDS011;32503;47.748;8.960;2023-11-19T02:11:34;2.77;;;2.57;;
3149;SDS011;32503;47.748;8.960;2023-11-19T02:14:01;3.30;;;3.10;;
3149;SDS011;32503;47.748;8.960;2023-11-19T02:16:29;3.30;;;2.93;;
3149;SDS011;32503;47.748;8.960;2023-11-19T02:18:56;3.30;;;3.00;;
3149;SDS011;32503;47.748;8.960;2023-11-19T02:21:23;2.83;;;2.63;;
3149;SDS011;32503;47.748;8.960;2023-11-19T02:23:50;2.67;;;2.57;;
3149;SDS011;32503;47.748;8.960;2023-11-19T02:26:18;3.10;;;2.90;;
3149;SDS011;32503;47.748;8.960;2023-11-19T02:28:53;2.47;;;2.33;;
3149;SDS011;32503;47.748;8.960;2023-11-19T02:31:20;2.80;;;2.60;;
3149;SDS011;32503;47.748;8.960;2023-11-19T02:33:48;2.60;;;2.40;;
3149;SDS011;32503;47.748;8.960;2023-11-19T02:36:15;2.53;;;2.43;;
3149;SDS011;32503;47.748;8.960;2023-11-19T02:38:42;2.40;;;2.30;;
3149;SDS011;32503;47.748;8.960;2023-11-19T02:41:10;3.33;;;3.10;;
3149;SDS011;32503;47.748;8.960;2023-11-19T02:43:37;2.20;;;2.10;;
3149;SDS011;32503;47.748;8.960;2023-11-19T02:46:05;3.30;;;3.10;;
3149;SDS011;32503;47.748;8.960;2023-11-19T02:48:33;2.93;;;2.73;;
3149;SDS011;32503;47.748;8.960;2023-11-19T02:51:01;2.10;;;2.00;;
3149;SDS011;32503;47.748;8.960;2023-11-19T02:53:34;2.70;;;2.50;;
3149;SDS011;32503;47.748;8.960;2023-11-19T02:56:02;3.00;;;2.80;;
3149;SDS011;32503;47.748;8.960;2023-11-19T02:58:42;3.53;;;2.40;;
3149;SDS011;32503;47.748;8.960;2023-11-19T03:01:12;2.80;;;2.60;;
3149;SDS011;32503;47.748;8.960;2023-11-19T03:03:48;2.43;;;2.33;;
3149;SDS011;32503;47.748;8.960;2023-11-19T03:06:19;3.00;;;2.90;;
3149;SDS011;32503;47.748;8.960;2023-11-19T03:08:47;2.47;;;2.37;;
3149;SDS011;32503;47.748;8.960;2023-11-19T03:11:14;2.63;;;2.40;;
3149;SDS011;32503;47.748;8.960;2023-11-19T03:13:41;2.50;;;2.40;;
3149;SDS011;32503;47.748;8.960;2023-11-19T03:16:08;2.27;;;2.10;;
3149;SDS011;32503;47.748;8.960;2023-11-19T03:18:37;2.90;;;2.80;;
3149;SDS011;32503;47.748;8.960;2023-11-19T03:21:07;2.60;;;2.50;;
3149;SDS011;32503;47.748;8.960;2023-11-19T03:23:34;2.30;;;2.20;;
3149;SDS011;32503;47.748;8.960;2023-11-19T03:26:03;2.10;;;2.00;;
3149;SDS011;32503;47.748;8.960;2023-11-19T03:28:33;2.93;;;2.70;;
3149;SDS011;32503;47.748;8.960;2023-11-19T03:31:00;2.40;;;2.20;;
3149;SDS011;32503;47.748;8.960;2023-11-19T03:33:27;2.40;;;2.20;;
3149;SDS011;32503;47.748;8.960;2023-11-19T03:35:55;2.13;;;2.03;;
3149;SDS011;32503;47.748;8.960;2023-11-19T03:38:23;2.67;;;2.57;;
3149;SDS011;32503;47.748;8.960;2023-11-19T03:40:50;2.53;;;2.33;;
3149;SDS011;32503;47.748;8.960;2023-11-19T03:43:17;2.50;;;2.40;;
3149;SDS011;32503;47.748;8.960;2023-11-19T03:45:45;2.67;;;2.57;;
3149;SDS011;32503;47.748;8.960;2023-11-19T03:48:13;2.30;;;2.20;;
3149;SDS011;32503;47.748;8.960;2023-11-19T03:50:44;2.87;;;2.77;;
3149;SDS011;32503;47.748;8.960;2023-11-19T03:53:12;2.30;;;2.20;;
3149;SDS011;32503;47.748;8.960;2023-11-19T03:55:40;2.77;;;2.57;;
3149;SDS011;32503;47.748;8.960;2023-11-19T03:58:07;3.23;;;2.93;;
3149;SDS011;32503;47.748;8.960;2023-11-19T04:00:34;2.97;;;2.77;;
3149;SDS011;32503;47.748;8.960;2023-11-19T04:03:01;2.17;;;2.07;;
3149;SDS011;32503;47.748;8.960;2023-11-19T04:05:29;3.13;;;2.93;;
3149;SDS011;32503;47.748;8.960;2023-11-19T04:07:58;2.90;;;2.70;;
3149;SDS011;32503;47.748;8.960;2023-11-19T04:10:26;3.03;;;2.83;;
3149;SDS011;32503;47.748;8.960;2023-11-19T04:12:54;2.67;;;2.47;;
3149;SDS011;32503;47.748;8.960;2023-11-19T04:15:21;2.50;;;2.40;;
3149;SDS011;32503;47.748;8.960;2023-11-19T04:17:49;2.73;;;2.57;;
3149;SDS011;32503;47.748;8.960;2023-11-19T04:20:16;3.50;;;3.30;;
3149;SDS011;32503;47.748;8.960;2023-11-19T04:22:45;2.70;;;2.50;;
3149;SDS011;32503;47.748;8.960;2023-11-19T04:25:12;2.83;;;2.70;;
3149;SDS011;32503;47.748;8.960;2023-11-19T04:27:41;2.70;;;2.60;;
3149;SDS011;32503;47.748;8.960;2023-11-19T04:30:08;2.83;;;2.73;;
3149;SDS011;32503;47.748;8.960;2023-11-19T04:32:36;2.90;;;2.70;;
3149;SDS011;32503;47.748;8.960;2023-11-19T04:35:04;2.93;;;2.83;;
3149;SDS011;32503;47.748;8.960;2023-11-19T04:37:32;3.77;;;3.43;;
3149;SDS011;32503;47.748;8.960;2023-11-19T04:39:59;3.70;;;3.40;;
3149;SDS011;32503;47.748;8.960;2023-11-19T04:42:26;3.40;;;3.17;;
3149;SDS011;32503;47.748;8.960;2023-11-19T04:44:55;3.50;;;3.30;;
3149;SDS011;32503;47.748;8.960;2023-11-19T04:47:22;4.90;;;3.33;;
3149;SDS011;32503;47.748;8.960;2023-11-19T04:49:55;3.60;;;3.40;;
3149;SDS011;32503;47.748;8.960;2023-11-19T04:52:22;3.10;;;2.90;;
3149;SDS011;32503;47.748;8.960;2023-11-19T04:54:49;6.70;;;3.07;;
3149;SDS011;32503;47.748;8.960;2023-11-19T04:57:16;3.50;;;3.30;;
3149;SDS011;32503;47.748;8.960;2023-11-19T04:59:44;3.73;;;3.43;;
3149;SDS011;32503;47.748;8.960;2023-11-19T05:02:12;4.10;;;3.80;;
3149;SDS011;32503;47.748;8.960;2023-11-19T05:04:42;3.90;;;3.70;;
3149;SDS011;32503;47.748;8.960;2023-11-19T05:07:12;3.80;;;3.37;;
3149;SDS011;32503;47.748;8.960;2023-11-19T05:09:39;3.30;;;3.03;;
3149;SDS011;32503;47.748;8.960;2023-11-19T05:12:06;3.90;;;3.70;;
3149;SDS011;32503;47.748;8.960;2023-11-19T05:14:35;2.97;;;2.77;;
3149;SDS011;32503;47.748;8.960;2023-11-19T05:17:02;3.43;;;3.23;;
3149;SDS011;32503;47.748;8.960;2023-11-19T05:19:31;4.03;;;3.83;;
3149;SDS011;32503;47.748;8.960;2023-11-19T05:21:58;3.50;;;3.30;;
3149;SDS011;32503;47.748;8.960;2023-11-19T05:24:25;3.17;;;2.93;;
3149;SDS011;32503;47.748;8.960;2023-11-19T05:26:52;3.90;;;3.60;;
3149;SDS011;32503;47.748;8.960;2023-11-19T05:29:18;4.77;;;4.37;;
3149;SDS011;32503;47.748;8.960;2023-11-19T05:31:45;4.70;;;4.30;;
3149;SDS011;32503;47.748;8.960;2023-11-19T05:34:13;4.77;;;4.47;;
3149;SDS011;32503;47.748;8.960;2023-11-19T05:36:42;5.07;;;4.70;;
3149;SDS011;32503;47.748;8.960;2023-11-19T05:39:09;4.90;;;4.50;;
3149;SDS011;32503;47.748;8.960;2023-11-19T05:41:36;10.07;;;9.10;;
3149;SDS011;32503;47.748;8.960;2023-11-19T05:44:04;11.43;;;10.60;;
3149;SDS011;32503;47.748;8.960;2023-11-19T05:46:31;16.87;;;15.47;;
3149;SDS011;32503;47.748;8.960;2023-11-19T05:48:58;87.03;;;48.70;;
3149;SDS011;32503;47.748;8.960;2023-11-19T05:51:25;33.50;;;25.00;;
3149;SDS011;32503;47.748;8.960;2023-11-19T05:53:54;16.67;;;13.80;;
3149;SDS011;32503;47.748;8.960;2023-11-19T05:56:22;8.70;;;8.00;;
3149;SDS011;32503;47.748;8.960;2023-11-19T05:58:50;7.07;;;6.40;;
3149;SDS011;32503;47.748;8.960;2023-11-19T06:01:17;7.43;;;6.30;;
3149;SDS011;32503;47.748;8.960;2023-11-19T06:03:44;5.53;;;5.23;;
3149;SDS011;32503;47.748;8.960;2023-11-19T06:06:14;5.13;;;4.73;;
3149;SDS011;32503;47.748;8.960;2023-11-19T06:08:41;4.83;;;4.43;;
3149;SDS011;32503;47.748;8.960;2023-11-19T06:11:10;4.60;;;4.30;;
3149;SDS011;32503;47.748;8.960;2023-11-19T06:13:39;3.97;;;3.77;;
3149;SDS011;32503;47.748;8.960;2023-11-19T06:16:08;4.50;;;4.30;;
3149;SDS011;32503;47.748;8.960;2023-11-19T06:18:36;4.10;;;3.90;;
3149;SDS011;32503;47.748;8.960;2023-11-19T06:21:03;4.27;;;3.97;;
3149;SDS011;32503;47.748;8.960;2023-11-19T06:23:31;4.03;;;3.80;;
3149;SDS011;32503;47.748;8.960;2023-11-19T06:26:01;4.53;;;4.27;;
3149;SDS011;32503;47.748;8.960;2023-11-19T06:28:29;4.10;;;3.80;;
3149;SDS011;32503;47.748;8.960;2023-11-19T06:30:56;3.80;;;3.50;;
3149;SDS011;32503;47.748;8.960;2023-11-19T06:33:23;3.70;;;3.40;;
3149;SDS011;32503;47.748;8.960;2023-11-19T06:35:51;4.47;;;4.07;;
3149;SDS011;32503;47.748;8.960;2023-11-19T06:38:19;4.20;;;3.80;;
3149;SDS011;32503;47.748;8.960;2023-11-19T06:40:46;3.00;;;2.80;;
3149;SDS011;32503;47.748;8.960;2023-11-19T06:43:13;3.63;;;3.33;;
3149;SDS011;32503;47.748;8.960;2023-11-19T06:45:42;3.77;;;3.57;;
3149;SDS011;32503;47.748;8.960;2023-11-19T06:48:09;3.60;;;3.30;;
3149;SDS011;32503;47.748;8.960;2023-11-19T06:50:36;3.90;;;3.70;;
3149;SDS011;32503;47.748;8.960;2023-11-19T06:53:03;7.00;;;6.50;;
3149;SDS011;32503;47.748;8.960;2023-11-19T06:55:31;5.77;;;5.37;;
3149;SDS011;32503;47.748;8.960;2023-11-19T06:57:59;6.07;;;5.60;;
3149;SDS011;32503;47.748;8.960;2023-11-19T07:00:27;7.93;;;5.77;;
3149;SDS011;32503;47.748;8.960;2023-11-19T07:02:55;6.60;;;6.07;;
3149;SDS011;32503;47.748;8.960;2023-11-19T07:05:22;6.60;;;5.97;;
3149;SDS011;32503;47.748;8.960;2023-11-19T07:07:50;5.80;;;5.30;;
3149;SDS011;32503;47.748;8.960;2023-11-19T07:10:20;5.50;;;5.10;;
3149;SDS011;32503;47.748;8.960;2023-11-19T07:12:48;11.00;;;9.90;;
3149;SDS011;32503;47.748;8.960;2023-11-19T07:15:15;7.30;;;6.27;;
3149;SDS011;32503;47.748;8.960;2023-11-19T07:17:45;6.70;;;6.10;;
3149;SDS011;32503;47.748;8.960;2023-11-19T07:20:14;5.67;;;5.17;;
3149;SDS011;32503;47.748;8.960;2023-11-19T07:22:44;6.50;;;5.90;;
3149;SDS011;32503;47.748;8.960;2023-11-19T07:25:12;5.40;;;5.00;;
3149;SDS011;32503;47.748;8.960;2023-11-19T07:27:42;6.33;;;5.77;;
3149;SDS011;32503;47.748;8.960;2023-11-19T07:30:10;5.50;;;5.00;;
3149;SDS011;32503;47.748;8.960;2023-11-19T07:32:37;5.60;;;5.20;;
3149;SDS011;32503;47.748;8.960;2023-11-19T07:35:05;4.43;;;4.00;;
3149;SDS011;32503;47.748;8.960;2023-11-19T07:37:33;4.10;;;3.07;;
3149;SDS011;32503;47.748;8.960;2023-11-19T07:40:00;2.07;;;1.83;;
3149;SDS011;32503;47.748;8.960;2023-11-19T07:42:28;1.80;;;1.70;;
3149;SDS011;32503;47.748;8.960;2023-11-19T07:44:56;1.77;;;1.67;;
3149;SDS011;32503;47.748;8.960;2023-11-19T07:47:23;3.13;;;1.87;;
3149;SDS011;32503;47.748;8.960;2023-11-19T07:49:50;1.80;;;1.57;;
3149;SDS011;32503;47.748;8.960;2023-11-19T07:52:17;2.20;;;2.00;;
3149;SDS011;32503;47.748;8.960;2023-11-19T07:54:45;2.10;;;2.00;;
3149;SDS011;32503;47.748;8.960;2023-11-19T07:57:12;1.80;;;1.70;;
3149;SDS011;32503;47.748;8.960;2023-11-19T07:59:39;1.50;;;1.40;;
3149;SDS011;32503;47.748;8.960;2023-11-19T08:02:06;1.50;;;1.40;;
3149;SDS011;32503;47.748;8.960;2023-11-19T08:04:35;1.70;;;1.60;;
3149;SDS011;32503;47.748;8.960;2023-11-19T08:07:04;1.63;;;1.53;;
3149;SDS011;32503;47.748;8.960;2023-11-19T08:09:32;1.60;;;1.50;;
3149;SDS011;32503;47.748;8.960;2023-11-19T08:12:04;2.30;;;2.20;;
3149;SDS011;32503;47.748;8.960;2023-11-19T08:14:33;1.90;;;1.80;;
3149;SDS011;32503;47.748;8.960;2023-11-19T08:17:02;1.90;;;1.80;;
3149;SDS011;32503;47.748;8.960;2023-11-19T08:19:29;1.70;;;1.60;;
3149;SDS011;32503;47.748;8.960;2023-11-19T08:21:56;1.70;;;1.60;;
3149;SDS011;32503;47.748;8.960;2023-11-19T08:24:23;2.33;;;2.13;;
3149;SDS011;32503;47.748;8.960;2023-11-19T08:26:50;2.10;;;2.00;;
3149;SDS011;32503;47.748;8.960;2023-11-19T08:29:19;2.50;;;2.30;;
3149;SDS011;32503;47.748;8.960;2023-11-19T08:31:46;1.80;;;1.70;;
3149;SDS011;32503;47.748;8.960;2023-11-19T08:34:13;1.50;;;1.40;;
3149;SDS011;32503;47.748;8.960;2023-11-19T08:36:40;1.53;;;1.43;;
3149;SDS011;32503;47.748;8.960;2023-11-19T08:39:07;3.37;;;1.27;;
3149;SDS011;32503;47.748;8.960;2023-11-19T08:41:34;1.50;;;1.40;;
3149;SDS011;32503;47.748;8.960;2023-11-19T08:44:03;1.20;;;1.10;;
3149;SDS011;32503;47.748;8.960;2023-11-19T08:46:32;2.00;;;1.90;;
3149;SDS011;32503;47.748;8.960;2023-11-19T08:49:00;1.70;;;1.60;;
3149;SDS011;32503;47.748;8.960;2023-11-19T08:51:28;2.17;;;2.07;;
3149;SDS011;32503;47.748;8.960;2023-11-19T08:53:55;2.70;;;2.50;;
3149;SDS011;32503;47.748;8.960;2023-11-19T08:56:22;1.93;;;1.80;;
3149;SDS011;32503;47.748;8.960;2023-11-19T08:58:49;1.97;;;1.70;;
3149;SDS011;32503;47.748;8.960;2023-11-19T09:01:16;2.57;;;2.47;;
3149;SDS011;32503;47.748;8.960;2023-11-19T09:03:45;2.63;;;1.90;;
3149;SDS011;32503;47.748;8.960;2023-11-19T09:06:12;1.40;;;1.30;;
3149;SDS011;32503;47.748;8.960;2023-11-19T09:08:39;1.60;;;1.50;;
3149;SDS011;32503;47.748;8.960;2023-11-19T09:11:06;1.50;;;1.40;;
3149;SDS011;32503;47.748;8.960;2023-11-19T09:13:34;1.60;;;1.50;;
3149;SDS011;32503;47.748;8.960;2023-11-19T09:16:02;1.53;;;1.43;;
3149;SDS011;32503;47.748;8.960;2023-11-19T09:18:29;1.50;;;1.40;;
3149;SDS011;32503;47.748;8.960;2023-11-19T09:20:58;1.20;;;1.10;;
3149;SDS011;32503;47.748;8.960;2023-11-19T09:23:25;1.13;;;1.10;;
3149;SDS011;32503;47.748;8.960;2023-11-19T09:25:53;1.00;;;0.90;;
3149;SDS011;32503;47.748;8.960;2023-11-19T09:28:20;1.00;;;0.90;;
3149;SDS011;32503;47.748;8.960;2023-11-19T09:30:47;1.30;;;1.20;;
3149;SDS011;32503;47.748;8.960;2023-11-19T09:33:14;1.23;;;1.13;;
3149;SDS011;32503;47.748;8.960;2023-11-19T09:35:43;1.40;;;1.30;;
3149;SDS011;32503;47.748;8.960;2023-11-19T09:38:12;1.20;;;1.10;;
3149;SDS011;32503;47.748;8.960;2023-11-19T09:40:39;1.57;;;1.47;;
3149;SDS011;32503;47.748;8.960;2023-11-19T09:43:06;0.93;;;0.93;;
3149;SDS011;32503;47.748;8.960;2023-11-19T09:45:39;0.90;;;0.90;;
3149;SDS011;32503;47.748;8.960;2023-11-19T09:48:16;1.00;;;0.80;;
3149;SDS011;32503;47.748;8.960;2023-11-19T09:50:44;0.73;;;0.70;;
3149;SDS011;32503;47.748;8.960;2023-11-19T09:53:14;1.10;;;1.00;;
3149;SDS011;32503;47.748;8.960;2023-11-19T09:55:41;0.70;;;0.70;;
3149;SDS011;32503;47.748;8.960;2023-11-19T09:58:09;1.23;;;1.13;;
3149;SDS011;32503;47.748;8.960;2023-11-19T10:00:40;0.93;;;0.70;;
3149;SDS011;32503;47.748;8.960;2023-11-19T10:03:07;1.20;;;0.93;;
3149;SDS011;32503;47.748;8.960;2023-11-19T10:05:38;0.70;;;0.70;;
3149;SDS011;32503;47.748;8.960;2023-11-19T10:08:06;0.70;;;0.70;;
3149;SDS011;32503;47.748;8.960;2023-11-19T10:10:37;0.70;;;0.60;;
3149;SDS011;32503;47.748;8.960;2023-11-19T10:13:04;0.93;;;0.83;;
3149;SDS011;32503;47.748;8.960;2023-11-19T10:15:33;0.83;;;0.80;;
3149;SDS011;32503;47.748;8.960;2023-11-19T10:18:03;0.77;;;0.70;;
3149;SDS011;32503;47.748;8.960;2023-11-19T10:20:34;0.80;;;0.70;;
3149;SDS011;32503;47.748;8.960;2023-11-19T10:23:03;0.70;;;0.70;;
3149;SDS011;32503;47.748;8.960;2023-11-19T10:25:30;0.80;;;0.70;;
3149;SDS011;32503;47.748;8.960;2023-11-19T10:28:00;0.67;;;0.63;;
3149;SDS011;32503;47.748;8.960;2023-11-19T10:30:28;0.60;;;0.50;;
3149;SDS011;32503;47.748;8.960;2023-11-19T10:33:05;0.60;;;0.50;;
3149;SDS011;32503;47.748;8.960;2023-11-19T10:35:33;0.80;;;0.70;;
3149;SDS011;32503;47.748;8.960;2023-11-19T10:38:01;0.63;;;0.60;;
3149;SDS011;32503;47.748;8.960;2023-11-19T10:40:41;0.57;;;0.40;;
3149;SDS011;32503;47.748;8.960;2023-11-19T10:43:10;0.70;;;0.50;;
3149;SDS011;32503;47.748;8.960;2023-11-19T10:45:37;11.40;;;0.60;;
3149;SDS011;32503;47.748;8.960;2023-11-19T10:48:05;0.70;;;0.60;;
3149;SDS011;32503;47.748;8.960;2023-11-19T10:50:33;0.80;;;0.80;;
3149;SDS011;32503;47.748;8.960;2023-11-19T10:53:02;0.80;;;0.80;;
3149;SDS011;32503;47.748;8.960;2023-11-19T10:55:30;0.63;;;0.50;;
3149;SDS011;32503;47.748;8.960;2023-11-19T10:58:00;0.90;;;0.70;;
3149;SDS011;32503;47.748;8.960;2023-11-19T11:00:33;0.80;;;0.70;;
3149;SDS011;32503;47.748;8.960;2023-11-19T11:03:08;2.03;;;0.60;;
3149;SDS011;32503;47.748;8.960;2023-11-19T11:05:42;0.60;;;0.60;;
3149;SDS011;32503;47.748;8.960;2023-11-19T11:08:13;0.60;;;0.50;;
3149;SDS011;32503;47.748;8.960;2023-11-19T11:10:42;0.70;;;0.70;;
3149;SDS011;32503;47.748;8.960;2023-11-19T11:13:13;0.90;;;0.80;;
3149;SDS011;32503;47.748;8.960;2023-11-19T11:15:41;2.33;;;0.80;;
3149;SDS011;32503;47.748;8.960;2023-11-19T11:18:11;0.80;;;0.60;;
3149;SDS011;32503;47.748;8.960;2023-11-19T11:20:39;0.67;;;0.53;;
3149;SDS011;32503;47.748;8.960;2023-11-19T11:26:40;0.70;;;0.70;;
3149;SDS011;32503;47.748;8.960;2023-11-19T11:29:37;0.60;;;0.60;;
3149;SDS011;32503;47.748;8.960;2023-11-19T11:32:18;0.70;;;0.60;;
3149;SDS011;32503;47.748;8.960;2023-11-19T11:35:02;1.13;;;0.80;;
3149;SDS011;32503;47.748;8.960;2023-11-19T11:37:49;0.90;;;0.80;;
3149;SDS011;32503;47.748;8.960;2023-11-19T11:40:27;0.80;;;0.70;;
3149;SDS011;32503;47.748;8.960;2023-11-19T11:42:54;1.63;;;0.90;;
3149;SDS011;32503;47.748;8.960;2023-11-19T11:45:34;0.70;;;0.50;;
3149;SDS011;32503;47.748;8.960;2023-11-19T11:48:08;1.23;;;0.70;;
3149;SDS011;32503;47.748;8.960;2023-11-19T11:50:50;0.70;;;0.70;;
3149;SDS011;32503;47.748;8.960;2023-11-19T11:53:21;0.70;;;0.60;;
3149;SDS011;32503;47.748;8.960;2023-11-19T11:55:58;0.80;;;0.80;;
3149;SDS011;32503;47.748;8.960;2023-11-19T11:58:31;0.93;;;0.83;;
3149;SDS011;32503;47.748;8.960;2023-11-19T12:01:04;0.70;;;0.63;;
3149;SDS011;32503;47.748;8.960;2023-11-19T12:03:33;0.80;;;0.70;;
3149;SDS011;32503;47.748;8.960;2023-11-19T12:06:00;0.80;;;0.60;;
3149;SDS011;32503;47.748;8.960;2023-11-19T12:08:28;0.60;;;0.60;;
3149;SDS011;32503;47.748;8.960;2023-11-19T12:10:56;0.73;;;0.60;;
3149;SDS011;32503;47.748;8.960;2023-11-19T12:13:25;0.90;;;0.77;;
3149;SDS011;32503;47.748;8.960;2023-11-19T12:16:12;0.70;;;0.60;;
3149;SDS011;32503;47.748;8.960;2023-11-19T12:18:41;0.77;;;0.70;;
3149;SDS011;32503;47.748;8.960;2023-11-19T12:21:08;0.80;;;0.70;;
3149;SDS011;32503;47.748;8.960;2023-11-19T12:23:45;0.70;;;0.60;;
3149;SDS011;32503;47.748;8.960;2023-11-19T12:26:32;0.60;;;0.60;;
3149;SDS011;32503;47.748;8.960;2023-11-19T12:29:06;1.10;;;1.00;;
3149;SDS011;32503;47.748;8.960;2023-11-19T12:31:33;0.80;;;0.70;;
3149;SDS011;32503;47.748;8.960;2023-11-19T12:34:06;1.13;;;0.90;;
3149;SDS011;32503;47.748;8.960;2023-11-19T12:36:36;0.70;;;0.60;;
3149;SDS011;32503;47.748;8.960;2023-11-19T12:39:06;1.30;;;1.20;;
3149;SDS011;32503;47.748;8.960;2023-11-19T12:41:48;1.20;;;1.10;;
3149;SDS011;32503;47.748;8.960;2023-11-19T12:44:17;0.90;;;0.90;;
3149;SDS011;32503;47.748;8.960;2023-11-19T12:46:44;1.70;;;1.60;;
3149;SDS011;32503;47.748;8.960;2023-11-19T12:49:12;1.07;;;0.90;;
3149;SDS011;32503;47.748;8.960;2023-11-19T12:51:39;1.20;;;1.10;;
3149;SDS011;32503;47.748;8.960;2023-11-19T12:54:07;1.27;;;1.17;;
3149;SDS011;32503;47.748;8.960;2023-11-19T12:56:34;1.60;;;1.50;;
3149;SDS011;32503;47.748;8.960;2023-11-19T12:59:10;1.13;;;1.13;;
3149;SDS011;32503;47.748;8.960;2023-11-19T13:01:38;1.00;;;0.90;;
3149;SDS011;32503;47.748;8.960;2023-11-19T13:04:17;1.30;;;1.20;;
3149;SDS011;32503;47.748;8.960;2023-11-19T13:06:44;0.80;;;0.80;;
3149;SDS011;32503;47.748;8.960;2023-11-19T13:09:21;1.07;;;1.07;;
3149;SDS011;32503;47.748;8.960;2023-11-19T13:11:49;0.80;;;0.80;;
3149;SDS011;32503;47.748;8.960;2023-11-19T13:14:17;1.27;;;1.17;;
3149;SDS011;32503;47.748;8.960;2023-11-19T13:16:45;1.03;;;0.93;;
3149;SDS011;32503;47.748;8.960;2023-11-19T13:19:13;1.10;;;0.80;;
3149;SDS011;32503;47.748;8.960;2023-11-19T13:21:42;0.70;;;0.70;;
3149;SDS011;32503;47.748;8.960;2023-11-19T13:24:12;0.90;;;0.90;;
3149;SDS011;32503;47.748;8.960;2023-11-19T13:26:39;0.93;;;0.90;;
3149;SDS011;32503;47.748;8.960;2023-11-19T13:29:06;0.80;;;0.80;;
3149;SDS011;32503;47.748;8.960;2023-11-19T13:31:35;0.83;;;0.83;;
3149;SDS011;32503;47.748;8.960;2023-11-19T13:34:03;0.80;;;0.80;;
3149;SDS011;32503;47.748;8.960;2023-11-19T13:36:32;1.20;;;1.10;;
3149;SDS011;32503;47.748;8.960;2023-11-19T13:39:00;0.83;;;0.80;;
3149;SDS011;32503;47.748;8.960;2023-11-19T13:41:28;1.40;;;1.10;;
3149;SDS011;32503;47.748;8.960;2023-11-19T13:43:55;1.13;;;1.07;;
3149;SDS011;32503;47.748;8.960;2023-11-19T13:46:22;0.90;;;0.70;;
3149;SDS011;32503;47.748;8.960;2023-11-19T13:48:49;0.83;;;0.83;;
3149;SDS011;32503;47.748;8.960;2023-11-19T13:51:19;2.20;;;0.80;;
3149;SDS011;32503;47.748;8.960;2023-11-19T13:53:46;0.70;;;0.70;;
3149;SDS011;32503;47.748;8.960;2023-11-19T13:56:14;3.17;;;1.00;;
3149;SDS011;32503;47.748;8.960;2023-11-19T13:58:43;0.80;;;0.80;;
3149;SDS011;32503;47.748;8.960;2023-11-19T14:01:10;0.90;;;0.60;;
3149;SDS011;32503;47.748;8.960;2023-11-19T14:03:37;2.20;;;0.90;;
3149;SDS011;32503;47.748;8.960;2023-11-19T14:06:05;0.70;;;0.60;;
3149;SDS011;32503;47.748;8.960;2023-11-19T14:08:33;0.67;;;0.63;;
3149;SDS011;32503;47.748;8.960;2023-11-19T14:11:00;0.87;;;0.83;;
3149;SDS011;32503;47.748;8.960;2023-11-19T14:13:29;0.90;;;0.90;;
3149;SDS011;32503;47.748;8.960;2023-11-19T14:15:56;0.80;;;0.70;;
3149;SDS011;32503;47.748;8.960;2023-11-19T14:18:27;0.90;;;0.70;;
3149;SDS011;32503;47.748;8.960;2023-11-19T14:20:54;0.80;;;0.73;;
3149;SDS011;32503;47.748;8.960;2023-11-19T14:23:26;0.97;;;0.97;;
3149;SDS011;32503;47.748;8.960;2023-11-19T14:25:59;1.00;;;0.67;;
3149;SDS011;32503;47.748;8.960;2023-11-19T14:28:26;0.90;;;0.77;;
3149;SDS011;32503;47.748;8.960;2023-11-19T14:30:54;0.80;;;0.73;;
3149;SDS011;32503;47.748;8.960;2023-11-19T14:33:24;0.70;;;0.70;;
3149;SDS011;32503;47.748;8.960;2023-11-19T14:35:51;0.97;;;0.80;;
3149;SDS011;32503;47.748;8.960;2023-11-19T14:38:18;0.70;;;0.60;;
3149;SDS011;32503;47.748;8.960;2023-11-19T14:40:45;0.77;;;0.77;;
3149;SDS011;32503;47.748;8.960;2023-11-19T14:43:13;0.70;;;0.63;;
3149;SDS011;32503;47.748;8.960;2023-11-19T14:45:40;0.80;;;0.80;;
3149;SDS011;32503;47.748;8.960;2023-11-19T14:48:09;0.90;;;0.70;;
3149;SDS011;32503;47.748;8.960;2023-11-19T14:50:36;0.70;;;0.70;;
3149;SDS011;32503;47.748;8.960;2023-11-19T14:53:03;0.80;;;0.80;;
3149;SDS011;32503;47.748;8.960;2023-11-19T14:55:30;0.90;;;0.80;;
3149;SDS011;32503;47.748;8.960;2023-11-19T14:57:58;0.70;;;0.70;;
3149;SDS011;32503;47.748;8.960;2023-11-19T15:00:25;0.90;;;0.80;;
3149;SDS011;32503;47.748;8.960;2023-11-19T15:02:51;0.80;;;0.70;;
3149;SDS011;32503;47.748;8.960;2023-11-19T15:05:22;0.80;;;0.77;;
3149;SDS011;32503;47.748;8.960;2023-11-19T15:07:49;0.90;;;0.90;;
3149;SDS011;32503;47.748;8.960;2023-11-19T15:10:16;0.73;;;0.60;;
3149;SDS011;32503;47.748;8.960;2023-11-19T15:12:43;0.90;;;0.90;;